PGRO

Benjamin Taisacan Manglona International Airport

Rota Island, , North Mariana Islands
PGRO 170608Z 1706/1806 09012KT P6SM VCSH FEW012 SCT030 BKN120 TEMPO 1706/1710 3SM -SHRA BKN015 OVC025 FM172300 08016KT P6SM VCSH SCT012 SCT030 BKN120
Issued Valid From Valid To
Dec-17 @ 06:08 UTC
(an hour ago)
Dec-17 @ 06:00 UTC
(an hour ago)
Dec-18 @ 06:00 UTC
(in 23 hours)
Dec-17 @ 06:00 to Dec-17 @ 23:00
PGRO 170608Z 1706/1806 09012KT P6SM VCSH FEW012 SCT030 BKN120
Wind Visibility Clouds
90° at 12 knots 10,000+ meters
  • Few at 1,200' AGL
  • Scattered at 3,000' AGL
  • Broken at 12,000' AGL
Temporary Dec-17 @ 06:00 to Dec-17 @ 10:00
TEMPO 1706/1710 3SM -SHRA BKN015 OVC025
Visibility Clouds Conditions
4,828 meters
  • Broken at 1,500' AGL
  • Overcast at 2,500' AGL
  • Light Rain
From Dec-17 @ 23:00 to Dec-18 @ 06:00
FM172300 08016KT P6SM VCSH SCT012 SCT030 BKN120
Wind Visibility Clouds
80° at 16 knots 10,000+ meters
  • Scattered at 1,200' AGL
  • Scattered at 3,000' AGL
  • Broken at 12,000' AGL
PGRO 170608Z 1706/1806 09012KT P6SM VCSH FEW012 SCT030 BKN120 TEMPO 1706/1710 3SM -SHRA BKN015 OVC025 FM172300 08016KT P6SM VCSH SCT012 SCT030 BKN120
Issued Dec-17 @ 06:08 UTC
(an hour ago)
Valid From Dec-17 @ 06:00 UTC
(an hour ago)
Valid To Dec-18 @ 06:00 UTC
(in 23 hours)
Dec-17 @ 06:00 - Dec-17 @ 23:00
Wind Visibility
90° at 12 knots 10,000+ meters
Clouds
  • Few at 1,200' AGL
  • Scattered at 3,000' AGL
  • Broken at 12,000' AGL
Temporary Dec-17 @ 06:00 - Dec-17 @ 10:00
Clouds
  • Broken at 1,500' AGL
  • Overcast at 2,500' AGL
Conditions
  • Light Rain
From Dec-17 @ 23:00 - Dec-18 @ 06:00
Wind Visibility
80° at 16 knots 10,000+ meters
Clouds
  • Scattered at 1,200' AGL
  • Scattered at 3,000' AGL
  • Broken at 12,000' AGL